createdAt,value
2017-10-11T00:00:45.750Z,40.2
2017-10-11T00:01:47.358Z,40.6
2017-10-11T00:02:48.970Z,40.4
2017-10-11T00:03:50.584Z,41.0
2017-10-11T00:04:52.197Z,39.9
2017-10-11T00:05:53.810Z,40.2
2017-10-11T00:06:55.421Z,41.3
2017-10-11T00:07:57.039Z,40.5
2017-10-11T00:08:58.651Z,43.4
2017-10-11T00:10:00.264Z,42.9
2017-10-11T00:11:01.878Z,44.1
2017-10-11T00:12:03.503Z,42.0
2017-10-11T00:13:05.105Z,42.1
2017-10-11T00:14:06.718Z,41.8
2017-10-11T00:15:08.335Z,42.0
2017-10-11T00:16:09.944Z,42.7
2017-10-11T00:17:11.562Z,42.9
2017-10-11T00:18:13.178Z,42.8
2017-10-11T00:19:14.795Z,42.9
2017-10-11T00:20:16.430Z,41.7
2017-10-11T00:21:18.025Z,42.0
2017-10-11T00:22:19.635Z,41.6
2017-10-11T00:23:21.253Z,41.6
2017-10-11T00:24:22.871Z,39.6
2017-10-11T00:25:24.476Z,41.7
2017-10-11T00:26:26.094Z,42.4
2017-10-11T00:27:27.703Z,42.1
2017-10-11T00:28:29.321Z,41.3
2017-10-11T00:29:30.933Z,40.9
2017-10-11T00:30:32.551Z,39.6
2017-10-11T00:31:34.163Z,42.3
2017-10-11T00:32:35.782Z,41.7
2017-10-11T00:33:37.390Z,41.0
2017-10-11T00:34:39.003Z,40.8
2017-10-11T00:35:40.619Z,40.1
2017-10-11T00:36:42.228Z,41.5
2017-10-11T00:37:43.841Z,44.0
2017-10-11T00:38:45.453Z,45.2
2017-10-11T00:39:47.064Z,44.0
2017-10-11T00:40:48.674Z,42.8
2017-10-11T00:41:50.294Z,42.8
2017-10-11T00:42:51.905Z,43.9
2017-10-11T00:43:53.526Z,45.1
2017-10-11T00:44:55.136Z,43.3
2017-10-11T00:45:56.755Z,44.1
2017-10-11T00:46:58.362Z,44.5
2017-10-11T00:47:59.978Z,43.6
2017-10-11T00:49:01.584Z,44.6
2017-10-11T00:50:03.208Z,44.2
2017-10-11T00:51:04.821Z,43.8
2017-10-11T00:52:06.432Z,43.3
2017-10-11T00:53:08.050Z,46.0
2017-10-11T00:54:09.664Z,44.3
2017-10-11T00:55:11.272Z,45.8
2017-10-11T00:56:12.885Z,46.0
2017-10-11T00:57:14.505Z,45.7
2017-10-11T00:58:16.112Z,45.1
2017-10-11T00:59:17.724Z,44.0
2017-10-11T01:00:19.343Z,44.9
2017-10-11T01:01:20.953Z,45.1
2017-10-11T01:02:22.561Z,45.5
2017-10-11T01:03:24.173Z,44.8
2017-10-11T01:04:25.785Z,45.4
2017-10-11T01:05:27.402Z,46.3
2017-10-11T01:06:29.002Z,45.1
2017-10-11T01:07:30.611Z,44.7
2017-10-11T01:08:32.220Z,47.6
2017-10-11T01:09:33.827Z,46.0
2017-10-11T01:10:35.434Z,44.2
2017-10-11T01:11:37.038Z,45.9
2017-10-11T01:12:38.652Z,46.0
2017-10-11T01:13:40.262Z,47.2
2017-10-11T01:14:41.868Z,45.6
2017-10-11T01:15:43.476Z,44.8
2017-10-11T01:16:45.092Z,46.3
2017-10-11T01:17:46.698Z,46.3
2017-10-11T01:18:48.300Z,45.7
2017-10-11T01:19:49.906Z,46.5
2017-10-11T01:20:51.517Z,45.1
2017-10-11T01:21:53.124Z,46.4
2017-10-11T01:22:54.733Z,45.1
2017-10-11T01:23:56.340Z,44.8
2017-10-11T01:24:57.950Z,46.3
2017-10-11T01:25:59.558Z,45.0
2017-10-11T01:27:01.189Z,45.1
2017-10-11T01:28:02.781Z,46.0
2017-10-11T01:29:04.395Z,46.2
2017-10-11T01:30:06.000Z,44.1
2017-10-11T01:31:07.612Z,47.5
2017-10-11T01:32:09.219Z,47.2
2017-10-11T01:33:10.830Z,47.2
2017-10-11T01:34:12.449Z,48.1
2017-10-11T01:35:14.061Z,47.2
2017-10-11T01:36:15.670Z,50.1
2017-10-11T01:37:17.290Z,48.7
2017-10-11T01:38:18.890Z,48.7
2017-10-11T01:39:20.496Z,50.0
2017-10-11T01:40:22.105Z,49.5
2017-10-11T01:41:23.710Z,50.9
2017-10-11T01:42:25.326Z,48.9
2017-10-11T01:43:26.938Z,48.2
2017-10-11T01:44:28.544Z,49.8
2017-10-11T01:45:30.150Z,49.3
2017-10-11T01:46:31.760Z,48.0
2017-10-11T01:47:33.364Z,52.4
2017-10-11T01:48:34.997Z,49.8
2017-10-11T01:49:36.579Z,49.8
2017-10-11T01:50:38.193Z,48.0
2017-10-11T01:51:39.799Z,50.6
2017-10-11T01:52:41.408Z,49.9
2017-10-11T01:53:43.015Z,50.1
2017-10-11T01:54:44.624Z,52.5
2017-10-11T01:55:46.234Z,51.6
2017-10-11T01:56:47.841Z,50.0
2017-10-11T01:57:49.455Z,52.5
2017-10-11T01:58:51.067Z,52.5
2017-10-11T01:59:52.664Z,52.4
2017-10-11T02:00:54.271Z,51.0
2017-10-11T02:01:55.884Z,51.6
2017-10-11T02:02:57.496Z,52.3
2017-10-11T02:03:59.099Z,52.5
2017-10-11T02:05:00.709Z,50.1
2017-10-11T02:06:02.321Z,52.5
2017-10-11T02:07:03.929Z,50.9
2017-10-11T02:08:05.536Z,50.6
2017-10-11T02:09:07.143Z,51.6
2017-10-11T02:10:08.761Z,50.7
2017-10-11T02:11:10.365Z,51.1
2017-10-11T02:12:11.973Z,49.7
2017-10-11T02:13:13.577Z,50.6
2017-10-11T02:14:15.188Z,51.6
2017-10-11T02:15:16.794Z,50.3
2017-10-11T02:16:18.405Z,50.9
2017-10-11T02:17:20.011Z,48.7
2017-10-11T02:18:21.624Z,51.1
2017-10-11T02:19:23.232Z,48.9
2017-10-11T02:20:24.843Z,50.7
2017-10-11T02:21:26.458Z,50.4
2017-10-11T02:22:28.057Z,49.6
2017-10-11T02:23:29.662Z,49.6
2017-10-11T02:24:31.274Z,49.9
2017-10-11T02:25:32.879Z,50.5
2017-10-11T02:26:34.493Z,48.6
2017-10-11T02:27:36.099Z,48.7
2017-10-11T02:28:37.707Z,49.1
2017-10-11T02:29:39.313Z,49.6
2017-10-11T02:30:40.923Z,49.8
2017-10-11T02:31:42.536Z,49.8
2017-10-11T02:32:44.144Z,48.5
2017-10-11T02:33:45.753Z,48.4
2017-10-11T02:34:47.361Z,49.6
2017-10-11T02:35:48.971Z,49.2
2017-10-11T02:36:50.573Z,50.4
2017-10-11T02:37:52.184Z,50.8
2017-10-11T02:38:53.790Z,51.0
2017-10-11T02:39:55.399Z,50.1
2017-10-11T02:40:57.006Z,49.8
2017-10-11T02:41:58.617Z,51.2
2017-10-11T02:43:00.219Z,51.3
2017-10-11T02:44:01.831Z,50.0
2017-10-11T02:45:03.435Z,51.9
2017-10-11T02:46:05.046Z,52.3
2017-10-11T02:47:06.653Z,50.2
2017-10-11T02:48:08.259Z,52.1
2017-10-11T02:49:09.866Z,53.7
2017-10-11T02:50:11.479Z,52.5
2017-10-11T02:51:13.083Z,52.1
2017-10-11T02:52:14.695Z,53.9
2017-10-11T02:53:16.300Z,51.5
2017-10-11T02:54:17.912Z,53.9
2017-10-11T02:55:19.539Z,52.1
2017-10-11T02:56:21.148Z,54.7
2017-10-11T02:57:22.751Z,54.4
2017-10-11T02:58:24.359Z,54.6
2017-10-11T02:59:25.969Z,53.2
2017-10-11T03:00:27.578Z,55.1
2017-10-11T03:01:29.186Z,56.0
2017-10-11T03:02:30.795Z,55.1
2017-10-11T03:03:32.405Z,53.1
2017-10-11T03:04:34.009Z,52.8
2017-10-11T03:05:36.352Z,54.7
2017-10-11T03:06:37.959Z,55.2
2017-10-11T03:07:39.572Z,54.2
2017-10-11T03:08:41.179Z,53.2
2017-10-11T03:09:42.796Z,55.2
2017-10-11T03:10:44.440Z,55.5
2017-10-11T03:11:46.037Z,54.9
2017-10-11T03:12:47.644Z,54.9
2017-10-11T03:13:49.257Z,57.4
2017-10-11T03:14:50.867Z,56.3
2017-10-11T03:15:52.473Z,58.2
2017-10-11T03:16:54.081Z,57.5
2017-10-11T03:17:55.690Z,57.5
2017-10-11T03:18:57.299Z,56.4
2017-10-11T03:19:58.902Z,57.2
2017-10-11T03:21:00.509Z,56.9
2017-10-11T03:22:02.120Z,57.6
2017-10-11T03:23:03.732Z,57.4
2017-10-11T03:24:05.338Z,56.0
2017-10-11T03:25:06.947Z,57.5
2017-10-11T03:26:08.557Z,57.0
2017-10-11T03:27:10.158Z,57.2
2017-10-11T03:28:11.768Z,54.7
2017-10-11T03:29:13.377Z,55.1
2017-10-11T03:30:14.989Z,57.4
2017-10-11T03:31:16.594Z,58.6
2017-10-11T03:32:18.198Z,58.7
2017-10-11T03:33:19.804Z,58.7
2017-10-11T03:34:21.416Z,60.1
2017-10-11T03:35:23.021Z,59.6
2017-10-11T03:36:24.638Z,57.4
2017-10-11T03:37:26.239Z,58.6
2017-10-11T03:38:27.851Z,58.9
2017-10-11T03:39:29.454Z,59.6
2017-10-11T03:40:31.063Z,58.0
2017-10-11T03:41:32.667Z,58.6
2017-10-11T03:42:34.279Z,60.1
2017-10-11T03:43:35.885Z,58.8
2017-10-11T03:44:37.493Z,59.8
2017-10-11T03:45:39.110Z,60.3
2017-10-11T03:46:40.718Z,57.8
2017-10-11T03:47:42.328Z,58.9
2017-10-11T03:48:43.938Z,59.1
2017-10-11T03:49:45.551Z,59.0
2017-10-11T03:50:47.155Z,59.4
2017-10-11T03:51:48.768Z,60.7
2017-10-11T03:52:50.372Z,62.0
2017-10-11T03:53:51.984Z,60.9
2017-10-11T03:54:53.586Z,59.5
2017-10-11T03:55:55.199Z,59.5
2017-10-11T03:56:56.801Z,58.9
2017-10-11T03:57:58.414Z,57.6
2017-10-11T03:59:00.039Z,60.1
2017-10-11T04:00:01.627Z,60.5
2017-10-11T04:01:03.233Z,60.2
2017-10-11T04:02:04.838Z,60.5
2017-10-11T04:03:06.444Z,59.4
2017-10-11T04:04:08.057Z,59.5
2017-10-11T04:05:09.659Z,59.3
2017-10-11T04:06:11.267Z,61.8
2017-10-11T04:07:12.882Z,60.8
2017-10-11T04:08:14.490Z,59.3
2017-10-11T04:09:16.093Z,59.3
2017-10-11T04:10:17.712Z,60.8
2017-10-11T04:11:19.310Z,61.0
2017-10-11T04:12:20.923Z,61.1
2017-10-11T04:13:22.527Z,61.8
2017-10-11T04:14:24.133Z,60.3
2017-10-11T04:15:25.744Z,60.7
2017-10-11T04:16:27.346Z,61.4
2017-10-11T04:17:28.955Z,59.6
2017-10-11T04:18:30.564Z,60.8
2017-10-11T04:19:32.179Z,60.7
2017-10-11T04:20:33.788Z,61.8
2017-10-11T04:21:35.396Z,60.9
2017-10-11T04:22:37.000Z,60.2
2017-10-11T04:23:38.612Z,61.8
2017-10-11T04:24:40.222Z,61.0
2017-10-11T04:25:41.828Z,58.6
2017-10-11T04:26:43.437Z,60.9
2017-10-11T04:27:45.041Z,60.8
2017-10-11T04:28:46.655Z,59.8
2017-10-11T04:29:48.258Z,60.6
2017-10-11T04:30:49.864Z,61.0
2017-10-11T04:31:51.473Z,60.9
2017-10-11T04:32:53.085Z,60.5
2017-10-11T04:33:54.691Z,60.7
2017-10-11T04:34:56.305Z,61.5
2017-10-11T04:35:57.916Z,59.4
2017-10-11T04:36:59.529Z,60.1
2017-10-11T04:38:01.137Z,59.6
2017-10-11T04:39:02.743Z,60.2
2017-10-11T04:40:04.354Z,59.7
2017-10-11T04:41:05.959Z,60.6
2017-10-11T04:42:07.570Z,59.8
2017-10-11T04:43:09.182Z,59.1
2017-10-11T04:44:10.784Z,60.7
2017-10-11T04:45:12.393Z,60.8
2017-10-11T04:46:14.000Z,59.2
2017-10-11T04:47:15.604Z,58.7
2017-10-11T04:48:17.212Z,59.8
2017-10-11T04:49:18.820Z,60.2
2017-10-11T04:50:20.436Z,62.0
2017-10-11T04:51:22.037Z,60.6
2017-10-11T04:52:23.646Z,58.5
2017-10-11T04:53:25.250Z,60.0
2017-10-11T04:54:26.858Z,57.6
2017-10-11T04:55:28.469Z,60.9
2017-10-11T04:56:30.073Z,60.5
2017-10-11T04:57:31.686Z,60.4
2017-10-11T04:58:33.290Z,60.1
2017-10-11T04:59:34.897Z,59.8
2017-10-11T05:00:36.511Z,58.7
2017-10-11T05:01:38.113Z,59.5
2017-10-11T05:02:39.728Z,60.3
2017-10-11T05:03:41.323Z,60.9
2017-10-11T05:04:42.938Z,60.7
2017-10-11T05:05:44.542Z,61.0
2017-10-11T05:06:46.145Z,59.8
2017-10-11T05:07:47.756Z,60.9
2017-10-11T05:08:49.364Z,60.5
2017-10-11T05:09:50.974Z,60.3
2017-10-11T05:10:52.579Z,59.3
2017-10-11T05:11:54.186Z,59.4
2017-10-11T05:12:55.800Z,59.8
2017-10-11T05:13:57.403Z,58.6
2017-10-11T05:14:59.011Z,58.6
2017-10-11T05:16:00.616Z,60.3
2017-10-11T05:17:02.229Z,60.3
2017-10-11T05:18:03.838Z,60.1
2017-10-11T05:19:05.444Z,59.8
2017-10-11T05:20:07.052Z,60.2
2017-10-11T05:21:08.656Z,60.5
2017-10-11T05:22:10.270Z,58.8
2017-10-11T05:23:11.875Z,60.1
2017-10-11T05:24:13.481Z,53.2
2017-10-11T05:25:15.093Z,54.3
2017-10-11T05:26:16.703Z,61.4
2017-10-11T05:27:19.655Z,62.0
2017-10-11T05:28:21.262Z,55.7
2017-10-11T05:29:22.867Z,65.7
2017-10-11T05:30:24.478Z,61.6
2017-10-11T05:31:26.129Z,67.2
2017-10-11T05:32:27.809Z,65.6
2017-10-11T05:33:29.418Z,65.4
2017-10-11T05:34:31.028Z,67.6
2017-10-11T05:35:32.629Z,65.6
2017-10-11T05:36:34.242Z,67.0
2017-10-11T05:37:35.845Z,68.9
2017-10-11T05:38:37.457Z,67.3
2017-10-11T05:39:39.072Z,70.1
2017-10-11T05:40:40.681Z,67.9
2017-10-11T05:41:42.292Z,72.1
2017-10-11T05:42:43.900Z,74.1
2017-10-11T05:43:45.508Z,70.8
2017-10-11T05:44:47.120Z,71.7
2017-10-11T05:45:48.727Z,72.2
2017-10-11T05:46:50.339Z,71.0
2017-10-11T05:47:51.953Z,70.1
2017-10-11T05:48:53.561Z,70.4
2017-10-11T05:49:55.170Z,69.7
2017-10-11T05:50:56.778Z,71.4
2017-10-11T05:51:58.388Z,70.1
2017-10-11T05:52:59.996Z,69.7
2017-10-11T05:54:01.610Z,70.5
2017-10-11T05:55:03.225Z,68.2
2017-10-11T05:56:04.827Z,67.9
2017-10-11T05:57:06.441Z,67.0
2017-10-11T05:58:08.052Z,68.3
2017-10-11T05:59:09.663Z,68.0
2017-10-11T06:00:11.285Z,67.9
2017-10-11T06:01:12.886Z,66.2
2017-10-11T06:02:14.494Z,68.7
2017-10-11T06:03:16.108Z,67.1
2017-10-11T06:04:17.723Z,66.6
2017-10-11T06:05:19.330Z,67.9
2017-10-11T06:06:20.948Z,66.2
2017-10-11T06:07:22.552Z,65.5
2017-10-11T06:08:24.168Z,65.1
2017-10-11T06:09:25.777Z,63.9
2017-10-11T06:10:27.392Z,64.1
2017-10-11T06:11:28.998Z,65.1
2017-10-11T06:12:30.612Z,63.1
2017-10-11T06:13:32.219Z,63.3
2017-10-11T06:14:33.840Z,64.0
2017-10-11T06:15:35.448Z,64.0
2017-10-11T06:16:37.068Z,63.2
2017-10-11T06:17:38.672Z,62.4
2017-10-11T06:18:40.288Z,62.5
2017-10-11T06:19:41.899Z,62.9
2017-10-11T06:20:43.511Z,61.3
2017-10-11T06:21:45.123Z,62.9
2017-10-11T06:22:46.732Z,62.7
2017-10-11T06:23:48.341Z,61.5
2017-10-11T06:24:49.955Z,61.4
2017-10-11T06:25:51.567Z,61.9
2017-10-11T06:26:53.173Z,61.4
2017-10-11T06:27:54.786Z,60.9
2017-10-11T06:28:56.391Z,60.8
2017-10-11T06:29:58.008Z,60.8
2017-10-11T06:30:59.616Z,57.8
2017-10-11T06:32:01.230Z,61.0
2017-10-11T06:33:02.865Z,64.5
2017-10-11T06:34:04.454Z,63.2
2017-10-11T06:35:06.060Z,64.0
2017-10-11T06:36:07.678Z,62.4
2017-10-11T06:37:09.287Z,64.0
2017-10-11T06:38:10.904Z,63.2
2017-10-11T06:39:12.509Z,62.8
2017-10-11T06:40:14.124Z,60.7
2017-10-11T06:41:15.733Z,61.0
2017-10-11T06:42:17.349Z,61.8
2017-10-11T06:43:18.956Z,60.3
2017-10-11T06:44:20.579Z,63.2
2017-10-11T06:45:22.180Z,62.5
2017-10-11T06:46:23.799Z,61.9
2017-10-11T06:47:25.400Z,61.0
2017-10-11T06:48:27.018Z,61.9
2017-10-11T06:49:28.628Z,63.2
2017-10-11T06:50:30.244Z,63.9
2017-10-11T06:51:31.854Z,63.1
2017-10-11T06:52:33.466Z,62.9
2017-10-11T06:53:35.081Z,63.8
2017-10-11T06:54:36.692Z,63.5
2017-10-11T06:55:38.301Z,63.1
2017-10-11T06:56:39.909Z,63.7
2017-10-11T06:57:41.528Z,62.8
2017-10-11T06:58:43.142Z,64.1
2017-10-11T06:59:44.753Z,62.1
2017-10-11T07:00:46.366Z,62.2
2017-10-11T07:01:47.981Z,63.7
2017-10-11T07:02:49.599Z,65.1
2017-10-11T07:03:51.206Z,64.5
2017-10-11T07:04:52.816Z,61.9
2017-10-11T07:05:54.435Z,64.7
2017-10-11T07:06:56.051Z,62.9
2017-10-11T07:07:57.666Z,64.0
2017-10-11T07:08:59.273Z,66.1
2017-10-11T07:10:00.890Z,65.1
2017-10-11T07:11:02.505Z,65.3
2017-10-11T07:12:04.112Z,67.1
2017-10-11T07:13:05.728Z,65.0
2017-10-11T07:14:07.346Z,66.8
2017-10-11T07:15:08.961Z,69.8
2017-10-11T07:16:10.571Z,67.8
2017-10-11T07:17:12.184Z,67.3
2017-10-11T07:18:13.797Z,69.6
2017-10-11T07:19:15.414Z,69.6
2017-10-11T07:20:17.024Z,70.0
2017-10-11T07:21:18.640Z,67.9
2017-10-11T07:22:20.258Z,69.8
2017-10-11T07:23:21.864Z,68.8
2017-10-11T07:24:23.483Z,72.6
2017-10-11T07:25:25.093Z,70.2
2017-10-11T07:26:26.710Z,72.3
2017-10-11T07:27:28.322Z,72.6
2017-10-11T07:28:29.941Z,72.2
2017-10-11T07:29:31.561Z,72.2
2017-10-11T07:30:33.169Z,73.3
2017-10-11T07:31:34.776Z,74.2
2017-10-11T07:32:36.393Z,74.5
2017-10-11T07:33:38.003Z,74.9
2017-10-11T07:34:39.624Z,71.7
2017-10-11T07:35:41.236Z,75.5
2017-10-11T07:36:42.852Z,75.6
2017-10-11T07:37:44.465Z,75.5
2017-10-11T07:38:46.081Z,74.6
2017-10-11T07:39:47.697Z,72.3
2017-10-11T07:40:49.308Z,75.3
2017-10-11T07:41:50.927Z,77.8
2017-10-11T07:42:52.537Z,75.7
2017-10-11T07:43:54.153Z,74.3
2017-10-11T07:44:55.767Z,74.4
2017-10-11T07:45:57.383Z,74.2
2017-10-11T07:46:58.993Z,76.2
2017-10-11T07:48:00.606Z,78.6
2017-10-11T07:49:02.226Z,76.6
2017-10-11T07:50:03.836Z,77.9
2017-10-11T07:51:06.179Z,76.1
2017-10-11T07:52:07.797Z,76.1
2017-10-11T07:53:09.410Z,76.7
2017-10-11T07:54:11.019Z,76.5
2017-10-11T07:55:12.635Z,77.8
2017-10-11T07:56:14.248Z,74.6
2017-10-11T07:57:15.867Z,75.4
2017-10-11T07:58:17.482Z,76.0
2017-10-11T07:59:19.093Z,75.2
2017-10-11T08:00:20.710Z,76.3
2017-10-11T08:01:22.324Z,76.4
2017-10-11T08:02:23.938Z,76.1
2017-10-11T08:03:25.549Z,75.7
2017-10-11T08:04:27.166Z,75.4
2017-10-11T08:05:28.777Z,78.3
2017-10-11T08:06:30.394Z,78.1
2017-10-11T08:07:32.009Z,78.7
2017-10-11T08:08:33.618Z,77.6
2017-10-11T08:09:35.236Z,78.9
2017-10-11T08:10:36.851Z,79.0
2017-10-11T08:11:38.496Z,81.7
2017-10-11T08:12:40.080Z,77.3
2017-10-11T08:13:41.698Z,81.0
2017-10-11T08:14:43.311Z,78.2
2017-10-11T08:15:44.921Z,80.9
2017-10-11T08:16:46.544Z,82.0
2017-10-11T08:17:48.151Z,80.4
2017-10-11T08:18:49.775Z,82.4
2017-10-11T08:19:51.384Z,82.9
2017-10-11T08:20:52.992Z,83.7
2017-10-11T08:21:54.610Z,83.6
2017-10-11T08:22:56.224Z,83.9
2017-10-11T08:23:57.841Z,84.0
2017-10-11T08:24:59.457Z,85.1
2017-10-11T08:26:01.075Z,85.7
2017-10-11T08:27:02.685Z,83.0
2017-10-11T08:28:04.300Z,86.4
2017-10-11T08:29:05.909Z,86.9
2017-10-11T08:30:07.527Z,88.2
2017-10-11T08:31:09.140Z,87.9
2017-10-11T08:32:10.757Z,84.9
2017-10-11T08:33:12.376Z,89.9
2017-10-11T08:34:13.984Z,89.5
2017-10-11T08:35:15.596Z,86.0
2017-10-11T08:36:17.214Z,88.6
2017-10-11T08:37:18.832Z,91.0
2017-10-11T08:38:20.445Z,93.3
2017-10-11T08:39:22.059Z,91.6
2017-10-11T08:40:23.670Z,90.7
2017-10-11T08:41:25.281Z,88.2
2017-10-11T08:42:26.893Z,91.9
2017-10-11T08:43:28.512Z,91.8
2017-10-11T08:44:30.122Z,92.8
2017-10-11T08:45:31.743Z,91.0
2017-10-11T08:46:33.353Z,91.7
2017-10-11T08:47:34.977Z,88.9
2017-10-11T08:48:36.585Z,90.5
2017-10-11T08:49:38.204Z,92.5
2017-10-11T08:50:39.812Z,89.9
2017-10-11T08:51:41.428Z,88.9
2017-10-11T08:52:43.047Z,91.3
2017-10-11T08:53:44.662Z,89.3
2017-10-11T08:54:46.275Z,90.3
2017-10-11T08:55:47.887Z,89.6
2017-10-11T08:56:49.498Z,88.0
2017-10-11T08:57:51.110Z,88.9
2017-10-11T08:58:52.723Z,88.5
2017-10-11T08:59:54.341Z,87.4
2017-10-11T09:00:55.956Z,88.6
2017-10-11T09:01:57.571Z,87.2
2017-10-11T09:02:59.188Z,87.9
2017-10-11T09:04:00.803Z,89.1
2017-10-11T09:05:02.412Z,87.9
2017-10-11T09:06:04.026Z,86.5
2017-10-11T09:07:05.643Z,87.3
2017-10-11T09:08:07.262Z,89.6
2017-10-11T09:09:08.875Z,88.0
2017-10-11T09:10:10.487Z,87.9
2017-10-11T09:11:12.103Z,90.6
2017-10-11T09:12:13.714Z,87.2
2017-10-11T09:13:15.330Z,89.0
2017-10-11T09:14:16.947Z,89.3
2017-10-11T09:15:18.568Z,86.0
2017-10-11T09:16:20.177Z,90.1
2017-10-11T09:17:21.790Z,91.3
2017-10-11T09:18:23.401Z,92.8
2017-10-11T09:19:25.018Z,89.1
2017-10-11T09:20:26.634Z,88.7
2017-10-11T09:21:28.248Z,88.9
2017-10-11T09:22:29.863Z,89.0
2017-10-11T09:23:31.480Z,91.1
2017-10-11T09:24:33.097Z,93.5
2017-10-11T09:25:34.705Z,90.2
2017-10-11T09:26:36.319Z,90.6
2017-10-11T09:27:37.938Z,91.9
2017-10-11T09:28:39.550Z,92.5
2017-10-11T09:29:41.163Z,92.1
2017-10-11T09:30:42.783Z,93.0
2017-10-11T09:31:44.396Z,90.6
2017-10-11T09:32:46.011Z,93.9
2017-10-11T09:33:47.623Z,92.2
2017-10-11T09:34:49.234Z,94.4
2017-10-11T09:35:50.856Z,92.3
2017-10-11T09:36:52.466Z,92.6
2017-10-11T09:37:54.095Z,91.3
2017-10-11T09:38:55.695Z,90.6
2017-10-11T09:39:57.314Z,92.2
2017-10-11T09:40:58.926Z,92.1
2017-10-11T09:42:00.542Z,90.6
2017-10-11T09:43:02.154Z,90.5
2017-10-11T09:44:03.772Z,90.1
2017-10-11T09:45:05.392Z,90.3
2017-10-11T09:46:07.007Z,93.4
2017-10-11T09:47:08.620Z,91.2
2017-10-11T09:48:10.236Z,91.1
2017-10-11T09:49:11.845Z,91.0
2017-10-11T09:50:13.473Z,92.3
2017-10-11T09:51:15.077Z,89.8
2017-10-11T09:52:16.694Z,91.4
2017-10-11T09:53:18.310Z,93.0
2017-10-11T09:54:19.925Z,95.2
2017-10-11T09:55:21.535Z,94.0
2017-10-11T09:56:23.154Z,94.7
2017-10-11T09:57:24.765Z,93.2
2017-10-11T09:58:26.386Z,93.7
2017-10-11T09:59:28.005Z,95.1
2017-10-11T10:00:29.614Z,95.4
2017-10-11T10:01:31.802Z,94.4
2017-10-11T10:02:33.411Z,95.2
2017-10-11T10:03:35.028Z,94.5
2017-10-11T10:04:36.646Z,94.4
2017-10-11T10:05:38.257Z,94.7
2017-10-11T10:06:39.874Z,95.0
2017-10-11T10:07:41.496Z,94.5
2017-10-11T10:08:43.100Z,94.0
2017-10-11T10:09:44.713Z,93.9
2017-10-11T10:10:46.330Z,95.6
2017-10-11T10:11:47.949Z,95.1
2017-10-11T10:12:49.560Z,95.6
2017-10-11T10:13:51.173Z,94.0
2017-10-11T10:14:52.790Z,92.5
2017-10-11T10:15:54.396Z,95.8
2017-10-11T10:16:56.017Z,94.6
2017-10-11T10:17:57.625Z,96.8
2017-10-11T10:18:59.245Z,94.7
2017-10-11T10:20:00.857Z,95.0
2017-10-11T10:21:02.474Z,95.8
2017-10-11T10:22:04.093Z,95.4
2017-10-11T10:23:05.702Z,94.9
2017-10-11T10:24:07.321Z,95.8
2017-10-11T10:25:08.931Z,95.8
2017-10-11T10:26:10.547Z,95.6
2017-10-11T10:27:12.164Z,95.2
2017-10-11T10:28:13.782Z,94.9
2017-10-11T10:29:15.394Z,95.1
2017-10-11T10:30:17.006Z,96.5
2017-10-11T10:31:18.625Z,93.3
2017-10-11T10:32:20.239Z,95.6
2017-10-11T10:33:21.856Z,96.0
2017-10-11T10:34:23.470Z,96.2
2017-10-11T10:35:25.089Z,94.7
2017-10-11T10:36:26.700Z,93.6
2017-10-11T10:37:28.316Z,94.3
2017-10-11T10:38:29.934Z,96.5
2017-10-11T10:39:31.548Z,93.9
2017-10-11T10:40:33.167Z,96.5
2017-10-11T10:41:34.778Z,95.6
2017-10-11T10:42:36.398Z,96.6
2017-10-11T10:43:38.006Z,94.9
2017-10-11T10:44:39.623Z,95.6
2017-10-11T10:45:41.236Z,96.2
2017-10-11T10:46:42.851Z,95.8
2017-10-11T10:47:44.473Z,95.1
2017-10-11T10:48:46.074Z,95.3
2017-10-11T10:49:47.688Z,95.4
2017-10-11T10:50:49.308Z,95.2
2017-10-11T10:51:50.914Z,94.4
2017-10-11T10:52:52.534Z,95.1
2017-10-11T10:53:54.146Z,94.4
2017-10-11T10:54:55.757Z,95.6
2017-10-11T10:55:57.369Z,94.9
2017-10-11T10:56:58.988Z,94.9
2017-10-11T10:58:00.598Z,94.8
2017-10-11T10:59:02.211Z,95.7
2017-10-11T11:00:03.831Z,95.5
2017-10-11T11:01:05.445Z,95.4
2017-10-11T11:02:07.056Z,95.5
2017-10-11T11:03:08.675Z,95.5
2017-10-11T11:04:10.288Z,95.6
2017-10-11T11:05:11.904Z,94.5
2017-10-11T11:06:13.515Z,94.5
2017-10-11T11:07:15.134Z,94.8
2017-10-11T11:08:16.744Z,92.8
2017-10-11T11:09:18.362Z,96.0
2017-10-11T11:10:19.982Z,94.4
2017-10-11T11:11:21.594Z,96.3
2017-10-11T11:12:23.206Z,95.6
2017-10-11T11:13:24.819Z,95.7
2017-10-11T11:14:26.434Z,94.9
2017-10-11T11:15:28.050Z,94.9
2017-10-11T11:16:29.661Z,94.0
2017-10-11T11:17:31.276Z,95.4
2017-10-11T11:18:32.896Z,95.7
2017-10-11T11:19:34.507Z,96.2
2017-10-11T11:20:36.122Z,94.7
2017-10-11T11:21:37.733Z,95.6
2017-10-11T11:22:39.350Z,95.3
2017-10-11T11:23:40.969Z,94.3
2017-10-11T11:24:42.586Z,94.8
2017-10-11T11:25:44.198Z,94.2
2017-10-11T11:26:45.811Z,94.5
2017-10-11T11:27:47.425Z,94.7
2017-10-11T11:28:49.038Z,98.1
2017-10-11T11:29:50.654Z,95.5
2017-10-11T11:30:52.268Z,96.3
2017-10-11T11:31:53.888Z,95.3
2017-10-11T11:32:55.501Z,96.8
2017-10-11T11:33:57.123Z,96.5
2017-10-11T11:34:58.734Z,96.3
2017-10-11T11:36:00.348Z,96.7
2017-10-11T11:37:01.967Z,96.7
2017-10-11T11:38:03.583Z,94.9
2017-10-11T11:39:05.201Z,95.9
2017-10-11T11:40:06.808Z,95.6
2017-10-11T11:41:08.430Z,94.9
2017-10-11T11:42:10.037Z,96.7
2017-10-11T11:43:11.655Z,94.5
2017-10-11T11:44:13.273Z,94.2
2017-10-11T11:45:14.888Z,96.6
2017-10-11T11:46:16.505Z,96.1
2017-10-11T11:47:18.123Z,95.1
2017-10-11T11:48:19.733Z,95.2
2017-10-11T11:49:21.351Z,94.5
2017-10-11T11:50:22.959Z,94.6
2017-10-11T11:51:24.579Z,95.3
2017-10-11T11:52:26.199Z,94.8
2017-10-11T11:53:27.808Z,94.7
2017-10-11T11:54:29.421Z,95.0
2017-10-11T11:55:31.032Z,94.3
2017-10-11T11:56:32.650Z,94.5
2017-10-11T11:57:34.261Z,94.9
2017-10-11T11:58:35.877Z,95.5
2017-10-11T11:59:37.489Z,95.6
2017-10-11T12:00:39.101Z,94.8
2017-10-11T12:01:40.718Z,96.8
2017-10-11T12:02:42.332Z,94.8
2017-10-11T12:03:43.948Z,95.5
2017-10-11T12:04:45.559Z,95.5
2017-10-11T12:05:47.176Z,95.0
2017-10-11T12:06:48.790Z,95.1
2017-10-11T12:07:50.408Z,95.6
2017-10-11T12:08:52.022Z,96.3
2017-10-11T12:09:53.640Z,97.4
2017-10-11T12:10:55.246Z,95.7
2017-10-11T12:11:56.862Z,95.9
2017-10-11T12:12:58.481Z,95.7
2017-10-11T12:14:00.094Z,95.5
2017-10-11T12:15:01.708Z,95.2
2017-10-11T12:16:03.328Z,94.5
2017-10-11T12:17:04.942Z,96.7
2017-10-11T12:18:06.550Z,96.4
2017-10-11T12:19:08.165Z,95.5
2017-10-11T12:20:09.784Z,95.1
2017-10-11T12:21:11.402Z,95.6
2017-10-11T12:22:13.012Z,94.3
2017-10-11T12:23:14.645Z,95.2
2017-10-11T12:24:16.246Z,95.6
2017-10-11T12:25:17.859Z,95.2
2017-10-11T12:26:19.471Z,95.6
2017-10-11T12:27:21.090Z,95.0
2017-10-11T12:28:22.702Z,95.2
2017-10-11T12:29:24.312Z,94.4
2017-10-11T12:30:25.931Z,96.1
2017-10-11T12:31:27.548Z,95.9
2017-10-11T12:32:29.156Z,95.8
2017-10-11T12:33:30.770Z,95.4
2017-10-11T12:34:32.385Z,96.5
2017-10-11T12:35:33.997Z,96.4
2017-10-11T12:36:35.615Z,94.8
2017-10-11T12:37:37.233Z,95.8
2017-10-11T12:38:38.843Z,94.9
2017-10-11T12:39:40.455Z,96.8
2017-10-11T12:40:42.075Z,95.7
2017-10-11T12:41:43.687Z,97.6
2017-10-11T12:42:45.300Z,96.8
2017-10-11T12:43:46.918Z,97.7
2017-10-11T12:44:48.532Z,97.7
2017-10-11T12:45:50.150Z,97.3
2017-10-11T12:46:51.762Z,99.0
2017-10-11T12:47:53.373Z,98.6
2017-10-11T12:48:54.983Z,98.7
2017-10-11T12:49:56.603Z,98.0
2017-10-11T12:50:58.215Z,99.0
2017-10-11T12:51:59.834Z,97.9
2017-10-11T12:53:01.465Z,98.8
2017-10-11T12:54:03.082Z,98.3
2017-10-11T12:55:04.692Z,98.0
2017-10-11T12:56:06.309Z,99.0
2017-10-11T12:57:07.922Z,99.2
2017-10-11T12:58:09.543Z,99.0
2017-10-11T12:59:11.155Z,99.9
2017-10-11T13:00:12.768Z,99.2
2017-10-11T13:01:14.381Z,99.5
2017-10-11T13:02:15.991Z,98.1
2017-10-11T13:03:17.609Z,98.0
2017-10-11T13:04:19.221Z,98.4
2017-10-11T13:05:20.840Z,97.5
2017-10-11T13:06:22.453Z,98.0
2017-10-11T13:07:24.072Z,98.6
2017-10-11T13:08:25.680Z,98.9
2017-10-11T13:09:27.297Z,99.1
2017-10-11T13:10:28.912Z,99.1
2017-10-11T13:11:30.525Z,98.9
2017-10-11T13:12:32.140Z,98.2
2017-10-11T13:13:33.758Z,98.7
2017-10-11T13:14:35.372Z,98.1
2017-10-11T13:15:36.986Z,98.3
2017-10-11T13:16:38.616Z,100.0
2017-10-11T13:17:40.214Z,97.9
2017-10-11T13:18:41.833Z,97.7
2017-10-11T13:19:43.443Z,99.1
2017-10-11T13:20:45.055Z,97.4
2017-10-11T13:21:46.673Z,99.1
2017-10-11T13:22:48.286Z,98.1
2017-10-11T13:23:49.898Z,98.4
2017-10-11T13:24:51.516Z,99.3
2017-10-11T13:25:53.126Z,98.3
2017-10-11T13:26:54.740Z,99.1
2017-10-11T13:27:56.360Z,99.1
2017-10-11T13:28:57.980Z,98.9
2017-10-11T13:29:59.583Z,98.0
2017-10-11T13:31:01.198Z,98.9
2017-10-11T13:32:02.815Z,98.7
2017-10-11T13:33:04.432Z,97.7
2017-10-11T13:34:06.042Z,98.8
2017-10-11T13:35:07.657Z,97.4
2017-10-11T13:36:09.273Z,96.7
2017-10-11T13:37:10.889Z,97.9
2017-10-11T13:38:12.501Z,97.7
2017-10-11T13:39:14.112Z,96.9
2017-10-11T13:40:15.734Z,96.5